createdAt,value
2023-01-19T00:00:40.566Z,1.02
2023-01-19T00:03:16.427Z,0.90
2023-01-19T00:05:44.770Z,1.04
2023-01-19T00:08:15.488Z,1.07
2023-01-19T00:10:45.223Z,1.08
2023-01-19T00:13:12.951Z,1.06
2023-01-19T00:15:40.112Z,1.09
2023-01-19T00:18:09.034Z,1.10
2023-01-19T00:20:36.953Z,1.08
2023-01-19T00:23:05.009Z,1.09
2023-01-19T00:25:32.330Z,1.09
2023-01-19T00:28:01.534Z,1.06
2023-01-19T00:30:29.643Z,1.02
2023-01-19T00:32:56.786Z,1.02
2023-01-19T00:35:24.038Z,1.03
2023-01-19T00:37:51.201Z,1.07
2023-01-19T00:40:18.545Z,1.09
2023-01-19T00:42:48.437Z,1.08
2023-01-19T00:45:21.602Z,1.10
2023-01-19T00:47:54.877Z,1.05
2023-01-19T00:50:22.016Z,1.10
2023-01-19T00:52:49.653Z,1.11
2023-01-19T00:55:17.007Z,1.10
2023-01-19T00:57:44.205Z,1.10
2023-01-19T01:00:14.389Z,1.11
2023-01-19T01:02:43.248Z,1.12
2023-01-19T01:05:11.133Z,1.11
2023-01-19T01:07:42.134Z,0.96
2023-01-19T01:10:12.034Z,1.11
2023-01-19T01:12:39.666Z,1.11
2023-01-19T01:15:09.462Z,1.11
2023-01-19T01:17:37.171Z,1.12
2023-01-19T01:20:05.205Z,1.10
2023-01-19T01:22:32.262Z,1.09
2023-01-19T01:25:00.121Z,1.05
2023-01-19T01:27:27.351Z,1.08
2023-01-19T01:29:54.488Z,1.08
2023-01-19T01:32:21.536Z,1.03
2023-01-19T01:34:48.623Z,1.11
2023-01-19T01:37:15.685Z,1.14
2023-01-19T01:39:42.763Z,1.15
2023-01-19T01:42:17.996Z,1.15
2023-01-19T01:44:54.209Z,1.16
2023-01-19T01:47:55.694Z,1.19
2023-01-19T01:50:25.320Z,1.18
2023-01-19T01:53:06.804Z,1.20
2023-01-19T01:55:46.975Z,1.18
2023-01-19T01:58:16.539Z,1.17
2023-01-19T02:01:02.340Z,1.17
2023-01-19T02:03:29.814Z,1.16
2023-01-19T02:06:01.883Z,1.16
2023-01-19T02:08:58.422Z,1.17
2023-01-19T02:11:44.622Z,1.17
2023-01-19T02:14:11.721Z,1.23
2023-01-19T02:16:39.098Z,1.25
2023-01-19T02:19:09.170Z,1.26
2023-01-19T02:21:54.814Z,1.26
2023-01-19T02:24:22.771Z,1.20
2023-01-19T02:26:51.530Z,1.25
2023-01-19T02:29:21.630Z,1.27
2023-01-19T02:31:48.806Z,1.26
2023-01-19T02:34:18.269Z,1.26
2023-01-19T02:37:06.924Z,1.25
2023-01-19T02:39:51.868Z,1.25
2023-01-19T02:42:24.595Z,1.23
2023-01-19T02:44:54.667Z,1.29
2023-01-19T02:47:21.864Z,1.28
2023-01-19T02:49:59.403Z,1.26
2023-01-19T02:52:28.349Z,1.29
2023-01-19T02:54:58.019Z,1.29
2023-01-19T02:57:31.572Z,1.30
2023-01-19T03:00:34.055Z,1.25
2023-01-19T03:03:30.839Z,1.31
2023-01-19T03:06:15.752Z,1.28
2023-01-19T03:08:46.832Z,1.28
2023-01-19T03:11:14.942Z,1.29
2023-01-19T03:14:09.109Z,1.29
2023-01-19T03:16:39.336Z,1.29
2023-01-19T03:19:10.245Z,1.27
2023-01-19T03:21:40.215Z,1.28
2023-01-19T03:24:09.572Z,1.27
2023-01-19T03:26:44.227Z,1.25
2023-01-19T03:29:14.314Z,1.26
2023-01-19T03:31:45.166Z,1.24
2023-01-19T03:34:15.348Z,1.19
2023-01-19T03:36:52.365Z,1.23
2023-01-19T03:39:24.575Z,1.19
2023-01-19T03:42:00.217Z,1.22
2023-01-19T03:44:29.431Z,1.24
2023-01-19T03:46:59.331Z,1.26
2023-01-19T03:49:27.172Z,1.27
2023-01-19T03:51:59.101Z,1.25
2023-01-19T03:54:27.316Z,1.29
2023-01-19T03:56:54.686Z,1.26
2023-01-19T03:59:22.123Z,1.24
2023-01-19T04:01:49.623Z,1.30
2023-01-19T04:04:16.851Z,1.32
2023-01-19T04:06:44.489Z,1.32
2023-01-19T04:09:11.819Z,1.31
2023-01-19T04:11:38.941Z,1.33
2023-01-19T04:14:06.123Z,1.32
2023-01-19T04:16:33.172Z,1.32
2023-01-19T04:19:00.241Z,1.35
2023-01-19T04:21:27.263Z,1.26
2023-01-19T04:23:54.301Z,1.33
2023-01-19T04:26:21.412Z,1.29
2023-01-19T04:28:48.648Z,1.32
2023-01-19T04:31:15.806Z,1.31
2023-01-19T04:33:42.876Z,1.29
2023-01-19T04:36:10.002Z,1.26
2023-01-19T04:38:37.211Z,1.24
2023-01-19T04:41:04.458Z,1.26
2023-01-19T04:43:31.565Z,1.25
2023-01-19T04:45:59.312Z,1.24
2023-01-19T04:48:26.477Z,1.22
2023-01-19T04:50:54.100Z,1.24
2023-01-19T04:53:21.187Z,1.25
2023-01-19T04:55:48.364Z,1.26
2023-01-19T04:58:15.969Z,1.28
2023-01-19T05:00:43.850Z,1.29
2023-01-19T05:03:11.046Z,1.24
2023-01-19T05:05:38.467Z,1.32
2023-01-19T05:08:05.738Z,1.32
2023-01-19T05:10:32.962Z,1.31
2023-01-19T05:13:00.255Z,1.32
2023-01-19T05:15:27.552Z,1.15
2023-01-19T05:17:54.727Z,1.32
2023-01-19T05:20:21.759Z,1.28
2023-01-19T05:22:50.843Z,1.25
2023-01-19T05:25:18.647Z,1.24
2023-01-19T05:27:46.160Z,1.26
2023-01-19T05:30:14.335Z,1.27
2023-01-19T05:32:41.494Z,1.27
2023-01-19T05:35:09.028Z,1.30
2023-01-19T05:37:36.291Z,1.31
2023-01-19T05:40:03.565Z,1.35
2023-01-19T05:42:32.672Z,1.34
2023-01-19T05:45:00.455Z,1.13
2023-01-19T05:47:30.162Z,1.31
2023-01-19T05:49:57.690Z,1.36
2023-01-19T05:52:27.798Z,1.36
2023-01-19T05:54:55.471Z,1.35
2023-01-19T05:57:22.743Z,1.32
2023-01-19T05:59:50.268Z,1.32
2023-01-19T06:02:17.443Z,1.25
2023-01-19T06:04:45.058Z,1.29
2023-01-19T06:07:12.126Z,1.33
2023-01-19T06:09:39.249Z,1.32
2023-01-19T06:12:06.743Z,1.33
2023-01-19T06:14:33.825Z,1.29
2023-01-19T06:17:00.910Z,1.30
2023-01-19T06:19:28.042Z,1.27
2023-01-19T06:21:55.080Z,1.25
2023-01-19T06:24:23.303Z,1.25
2023-01-19T06:26:50.461Z,1.17
2023-01-19T06:29:18.636Z,1.16
2023-01-19T06:31:45.846Z,1.18
2023-01-19T06:34:13.046Z,0.99
2023-01-19T06:36:40.284Z,1.09
2023-01-19T06:39:07.395Z,1.20
2023-01-19T06:41:34.784Z,1.20
2023-01-19T06:44:02.370Z,1.15
2023-01-19T06:46:30.044Z,1.09
2023-01-19T06:48:57.222Z,1.11
2023-01-19T06:51:24.651Z,1.17
2023-01-19T06:53:51.753Z,1.18
2023-01-19T06:56:19.033Z,1.18
2023-01-19T06:58:50.687Z,1.18
2023-01-19T07:01:18.064Z,1.12
2023-01-19T07:03:46.867Z,1.14
2023-01-19T07:06:14.122Z,1.15
2023-01-19T07:08:41.267Z,1.18
2023-01-19T07:11:24.922Z,1.22
2023-01-19T07:13:57.847Z,1.25
2023-01-19T07:16:25.313Z,1.17
2023-01-19T07:18:52.536Z,1.26
2023-01-19T07:21:19.663Z,1.23
2023-01-19T07:23:52.219Z,1.23
2023-01-19T07:26:21.641Z,1.19
2023-01-19T07:28:49.352Z,1.16
2023-01-19T07:31:16.936Z,1.15
2023-01-19T07:33:44.453Z,1.14
2023-01-19T07:36:12.312Z,1.13
2023-01-19T07:38:39.948Z,1.11
2023-01-19T07:41:09.440Z,1.11
2023-01-19T07:43:36.603Z,1.11
2023-01-19T07:46:05.924Z,1.12
2023-01-19T07:48:33.137Z,1.14
2023-01-19T07:51:01.745Z,1.18
2023-01-19T07:53:28.885Z,1.15
2023-01-19T07:55:57.261Z,1.20
2023-01-19T07:58:25.217Z,1.20
2023-01-19T08:00:52.914Z,1.24
2023-01-19T08:03:20.450Z,1.24
2023-01-19T08:05:51.948Z,1.25
2023-01-19T08:08:20.089Z,1.22
2023-01-19T08:10:50.639Z,1.28
2023-01-19T08:13:18.753Z,1.32
2023-01-19T08:15:49.725Z,1.31
2023-01-19T08:18:17.061Z,1.38
2023-01-19T08:20:44.324Z,1.40
2023-01-19T08:23:11.394Z,1.39
2023-01-19T08:25:44.553Z,1.39
2023-01-19T08:28:14.427Z,1.13
2023-01-19T08:30:44.108Z,1.35
2023-01-19T08:33:12.658Z,1.38
2023-01-19T08:35:43.950Z,1.33
2023-01-19T08:38:11.281Z,1.35
2023-01-19T08:40:40.470Z,1.38
2023-01-19T08:43:10.318Z,1.45
2023-01-19T08:45:41.705Z,1.44
2023-01-19T08:48:10.131Z,1.46
2023-01-19T08:50:37.257Z,1.50
2023-01-19T08:53:07.240Z,1.55
2023-01-19T08:55:36.520Z,1.58
2023-01-19T08:58:05.151Z,1.56
2023-01-19T09:00:38.150Z,1.57
2023-01-19T09:03:07.965Z,1.55
2023-01-19T09:05:38.935Z,1.53
2023-01-19T09:08:09.500Z,1.53
2023-01-19T09:10:38.267Z,1.60
2023-01-19T09:13:08.607Z,1.64
2023-01-19T09:15:38.071Z,1.62
2023-01-19T09:18:07.554Z,1.60
2023-01-19T09:20:36.359Z,1.59
2023-01-19T09:23:03.727Z,1.60
2023-01-19T09:25:31.467Z,1.61
2023-01-19T09:28:02.798Z,1.61
2023-01-19T09:30:30.196Z,1.58
2023-01-19T09:33:02.793Z,1.56
2023-01-19T09:35:31.793Z,1.59
2023-01-19T09:37:59.538Z,1.60
2023-01-19T09:40:28.184Z,1.63
2023-01-19T09:43:32.123Z,1.67
2023-01-19T09:46:01.753Z,1.73
2023-01-19T09:48:35.082Z,1.78
2023-01-19T09:51:07.882Z,1.81
2023-01-19T09:53:50.782Z,1.86
2023-01-19T09:56:20.409Z,1.90
2023-01-19T09:58:49.908Z,1.95
2023-01-19T10:01:38.209Z,2.00
2023-01-19T10:04:17.188Z,2.03
2023-01-19T10:06:44.439Z,2.03
2023-01-19T10:09:32.095Z,2.01
2023-01-19T10:12:35.989Z,1.97
2023-01-19T10:15:40.629Z,2.04
2023-01-19T10:18:31.645Z,2.03
2023-01-19T10:21:13.126Z,2.04
2023-01-19T10:23:58.444Z,2.04
2023-01-19T10:26:39.762Z,2.01
2023-01-19T10:29:34.648Z,2.04
2023-01-19T10:32:17.397Z,2.04
2023-01-19T10:34:44.597Z,2.03
2023-01-19T10:37:14.687Z,2.02
2023-01-19T10:39:43.012Z,2.01
2023-01-19T10:42:15.484Z,1.95
2023-01-19T10:44:43.393Z,1.91
2023-01-19T10:47:19.495Z,1.91
2023-01-19T10:49:48.485Z,1.90
2023-01-19T10:52:21.244Z,1.87
2023-01-19T10:54:48.855Z,1.90
2023-01-19T10:57:28.418Z,1.91
2023-01-19T10:59:55.798Z,1.92
2023-01-19T11:02:33.935Z,1.93
2023-01-19T11:05:22.361Z,1.92
2023-01-19T11:07:49.818Z,1.93
2023-01-19T11:10:17.643Z,1.98
2023-01-19T11:13:04.581Z,2.02
2023-01-19T11:15:33.306Z,2.09
2023-01-19T11:18:01.967Z,2.10
2023-01-19T11:20:47.344Z,2.16
2023-01-19T11:23:14.442Z,2.20
2023-01-19T11:25:49.173Z,2.21
2023-01-19T11:28:24.969Z,2.25
2023-01-19T11:31:01.599Z,2.22
2023-01-19T11:33:37.770Z,2.21
2023-01-19T11:36:07.847Z,2.21
2023-01-19T11:38:43.779Z,2.20
2023-01-19T11:41:31.087Z,2.18
2023-01-19T11:44:03.089Z,2.18
2023-01-19T11:46:34.680Z,2.14
2023-01-19T11:49:43.238Z,2.18
2023-01-19T11:52:45.131Z,2.17
2023-01-19T11:55:15.219Z,2.15
2023-01-19T11:57:52.398Z,2.16
2023-01-19T12:00:44.764Z,2.16
2023-01-19T12:03:11.878Z,2.18
2023-01-19T12:05:43.796Z,2.18
2023-01-19T12:08:27.164Z,2.18
2023-01-19T12:10:57.925Z,2.18
2023-01-19T12:13:27.459Z,2.19
2023-01-19T12:16:04.697Z,2.18
2023-01-19T12:18:41.578Z,2.17
2023-01-19T12:21:08.853Z,2.16
2023-01-19T12:24:04.107Z,2.16
2023-01-19T12:26:53.621Z,2.17
2023-01-19T12:29:22.763Z,2.17
2023-01-19T12:32:14.787Z,2.20
2023-01-19T12:34:49.590Z,2.22
2023-01-19T12:37:41.715Z,2.28
2023-01-19T12:40:31.465Z,2.30
2023-01-19T12:43:01.877Z,2.32
2023-01-19T12:45:34.389Z,2.32
2023-01-19T12:48:02.905Z,2.35
2023-01-19T12:50:37.935Z,2.39
2023-01-19T12:53:16.809Z,2.38
2023-01-19T12:55:46.968Z,2.40
2023-01-19T12:58:13.940Z,2.38
2023-01-19T13:00:43.272Z,2.39
2023-01-19T13:03:39.767Z,2.41
2023-01-19T13:06:09.498Z,2.41
2023-01-19T13:08:59.508Z,2.41
2023-01-19T13:11:30.311Z,2.34
2023-01-19T13:13:59.796Z,2.31
2023-01-19T13:16:27.751Z,2.26
2023-01-19T13:19:10.202Z,2.26
2023-01-19T13:21:45.948Z,2.31
2023-01-19T13:24:25.104Z,2.32
2023-01-19T13:26:52.100Z,2.33
2023-01-19T13:29:34.092Z,2.33
2023-01-19T13:32:04.271Z,2.28
2023-01-19T13:34:35.663Z,2.26
2023-01-19T13:37:04.700Z,2.28
2023-01-19T13:39:46.671Z,2.20
2023-01-19T13:42:21.366Z,2.18
2023-01-19T13:44:52.697Z,2.06
2023-01-19T13:47:24.098Z,2.04
2023-01-19T13:49:58.165Z,1.94
2023-01-19T13:52:29.982Z,1.96
2023-01-19T13:55:01.770Z,1.92
2023-01-19T13:57:33.951Z,1.94
2023-01-19T14:00:28.035Z,1.76
2023-01-19T14:03:23.957Z,1.87
2023-01-19T14:05:53.189Z,1.81
2023-01-19T14:08:21.565Z,1.81
2023-01-19T14:10:54.379Z,1.82
2023-01-19T14:13:26.488Z,1.77
2023-01-19T14:15:56.690Z,1.76
2023-01-19T14:18:25.857Z,1.70
2023-01-19T14:21:08.022Z,1.74
2023-01-19T14:23:51.463Z,1.75
2023-01-19T14:26:40.176Z,1.76
2023-01-19T14:29:34.995Z,1.75
2023-01-19T14:32:02.016Z,1.75
2023-01-19T14:34:30.021Z,1.75
2023-01-19T14:36:57.330Z,1.74
2023-01-19T14:39:27.304Z,1.73
2023-01-19T14:41:57.677Z,1.74
2023-01-19T14:44:24.752Z,1.74
2023-01-19T14:46:51.970Z,1.74
2023-01-19T14:49:41.841Z,1.72
2023-01-19T14:52:23.822Z,1.72
2023-01-19T14:54:51.658Z,1.72
2023-01-19T14:57:18.756Z,1.70
2023-01-19T14:59:49.748Z,1.70
2023-01-19T15:02:19.377Z,1.70
2023-01-19T15:04:48.275Z,1.72
2023-01-19T15:07:19.570Z,1.70
2023-01-19T15:09:47.612Z,1.71
2023-01-19T15:12:17.527Z,1.67
2023-01-19T15:14:46.018Z,1.66
2023-01-19T15:17:18.329Z,1.66
2023-01-19T15:19:45.452Z,1.64
2023-01-19T15:22:13.689Z,1.64
2023-01-19T15:24:41.197Z,1.62
2023-01-19T15:27:12.293Z,1.62
2023-01-19T15:29:42.686Z,1.63
2023-01-19T15:32:14.396Z,1.61
2023-01-19T15:34:42.298Z,1.56
2023-01-19T15:37:09.715Z,1.53
2023-01-19T15:39:36.847Z,1.56
2023-01-19T15:42:04.127Z,1.53
2023-01-19T15:44:31.493Z,1.55
2023-01-19T15:46:58.947Z,1.42
2023-01-19T15:49:26.476Z,1.51
2023-01-19T15:51:53.727Z,1.52
2023-01-19T15:54:20.805Z,1.49
2023-01-19T15:56:48.028Z,1.48
2023-01-19T15:59:15.151Z,1.39
2023-01-19T16:01:42.403Z,1.43
2023-01-19T16:04:11.280Z,1.36
2023-01-19T16:06:38.452Z,1.33
2023-01-19T16:09:05.950Z,1.32
2023-01-19T16:11:35.222Z,1.36
2023-01-19T16:14:02.726Z,1.35
2023-01-19T16:16:30.171Z,1.36
2023-01-19T16:18:57.629Z,1.42
2023-01-19T16:21:25.398Z,1.42
2023-01-19T16:23:53.312Z,1.41
2023-01-19T16:26:25.544Z,1.40
2023-01-19T16:28:53.667Z,1.39
2023-01-19T16:31:20.953Z,1.41
2023-01-19T16:33:48.041Z,1.42
2023-01-19T16:36:22.759Z,1.40
2023-01-19T16:38:50.368Z,1.42
2023-01-19T16:41:18.056Z,1.39
2023-01-19T16:43:50.080Z,1.35
2023-01-19T16:46:20.204Z,1.31
2023-01-19T16:48:47.359Z,1.24
2023-01-19T16:51:14.512Z,1.20
2023-01-19T16:53:41.756Z,1.23
2023-01-19T16:56:14.692Z,1.21
2023-01-19T16:58:42.726Z,1.18
2023-01-19T17:01:16.372Z,1.21
2023-01-19T17:03:44.531Z,1.20
2023-01-19T17:06:13.914Z,1.17
2023-01-19T17:08:41.555Z,1.19
2023-01-19T17:11:20.665Z,1.16
2023-01-19T17:14:02.890Z,1.15
2023-01-19T17:16:32.392Z,1.13
2023-01-19T17:19:01.624Z,1.15
2023-01-19T17:21:29.535Z,1.14
2023-01-19T17:23:57.730Z,1.09
2023-01-19T17:26:28.383Z,1.13
2023-01-19T17:29:02.751Z,1.11
2023-01-19T17:31:30.750Z,1.09
2023-01-19T17:33:58.592Z,1.11
2023-01-19T17:36:27.938Z,1.13
2023-01-19T17:38:57.706Z,1.07
2023-01-19T17:41:26.418Z,1.05
2023-01-19T17:43:55.005Z,1.00
2023-01-19T17:46:24.874Z,1.02
2023-01-19T17:48:56.455Z,1.00
2023-01-19T17:51:24.007Z,0.97
2023-01-19T17:53:52.684Z,0.98
2023-01-19T17:56:23.086Z,0.96
2023-01-19T17:58:50.411Z,0.94
2023-01-19T18:01:23.415Z,0.89
2023-01-19T18:03:50.905Z,0.76
2023-01-19T18:06:17.994Z,0.83
2023-01-19T18:08:48.674Z,0.80
2023-01-19T18:11:18.255Z,0.83
2023-01-19T18:13:46.871Z,0.83
2023-01-19T18:16:20.842Z,0.82
2023-01-19T18:18:49.955Z,0.77
2023-01-19T18:21:17.874Z,0.88
2023-01-19T18:23:46.044Z,0.87
2023-01-19T18:26:16.721Z,0.78
2023-01-19T18:28:43.779Z,0.75
2023-01-19T18:31:13.285Z,0.75
2023-01-19T18:33:41.236Z,0.70
2023-01-19T18:36:09.757Z,0.57
2023-01-19T18:38:36.946Z,0.46
2023-01-19T18:41:06.709Z,0.50
2023-01-19T18:43:34.206Z,0.48
2023-01-19T18:46:01.436Z,0.46
2023-01-19T18:48:28.693Z,0.49
2023-01-19T18:50:56.163Z,0.46
2023-01-19T18:53:23.983Z,0.44
2023-01-19T18:55:52.312Z,0.40
2023-01-19T18:58:20.402Z,0.42
2023-01-19T19:00:48.150Z,0.40
2023-01-19T19:03:15.317Z,0.40
2023-01-19T19:05:42.649Z,0.37
2023-01-19T19:08:10.090Z,0.38
2023-01-19T19:10:37.262Z,0.43
2023-01-19T19:13:04.441Z,0.47
2023-01-19T19:15:33.407Z,0.43
2023-01-19T19:18:00.731Z,0.46
2023-01-19T19:20:27.905Z,0.42
2023-01-19T19:22:56.170Z,0.40
2023-01-19T19:25:23.565Z,0.36
2023-01-19T19:27:51.934Z,0.35
2023-01-19T19:30:20.097Z,0.35
2023-01-19T19:32:54.615Z,0.32
2023-01-19T19:35:22.480Z,0.33
2023-01-19T19:37:49.878Z,0.35
2023-01-19T19:40:17.326Z,0.35
2023-01-19T19:42:44.328Z,0.36
2023-01-19T19:45:12.179Z,0.40
2023-01-19T19:47:39.225Z,0.36
2023-01-19T19:50:06.702Z,0.35
2023-01-19T19:52:39.632Z,0.32
2023-01-19T19:55:08.780Z,0.27
2023-01-19T19:57:36.295Z,0.27
2023-01-19T20:00:05.331Z,0.26
2023-01-19T20:02:37.040Z,0.21
2023-01-19T20:05:05.277Z,0.13
2023-01-19T20:07:33.121Z,0.13
2023-01-19T20:10:00.312Z,0.10
2023-01-19T20:12:27.864Z,0.06
2023-01-19T20:14:54.977Z,0.04
2023-01-19T20:17:23.416Z,-0.01
2023-01-19T20:19:50.611Z,-0.06
2023-01-19T20:22:17.895Z,-0.03
2023-01-19T20:24:45.461Z,-0.08
2023-01-19T20:27:12.590Z,-0.12
2023-01-19T20:29:39.956Z,-0.11
2023-01-19T20:32:08.155Z,-0.15
2023-01-19T20:34:35.887Z,-0.16
2023-01-19T20:37:04.881Z,-0.19
2023-01-19T20:39:33.698Z,-0.23
2023-01-19T20:42:01.741Z,-0.24
2023-01-19T20:44:29.058Z,-0.27
2023-01-19T20:46:56.876Z,-0.27
2023-01-19T20:49:24.247Z,-0.29
2023-01-19T20:52:06.586Z,-0.31
2023-01-19T20:54:34.245Z,-0.47
2023-01-19T20:57:01.406Z,-0.32
2023-01-19T20:59:28.583Z,-0.35
2023-01-19T21:01:55.912Z,-0.35
2023-01-19T21:04:23.521Z,-0.35
2023-01-19T21:06:50.652Z,-0.36
2023-01-19T21:09:18.983Z,-0.35
2023-01-19T21:11:46.045Z,-0.33
2023-01-19T21:14:13.217Z,-0.33
2023-01-19T21:16:42.701Z,-0.38
2023-01-19T21:19:09.818Z,-0.40
2023-01-19T21:21:37.020Z,-0.38
2023-01-19T21:24:05.039Z,-0.39
2023-01-19T21:26:33.752Z,-0.42
2023-01-19T21:29:02.616Z,-0.39
2023-01-19T21:31:30.517Z,-0.43
2023-01-19T21:33:58.347Z,-0.38
2023-01-19T21:36:26.076Z,-0.36
2023-01-19T21:38:55.779Z,-0.35
2023-01-19T21:41:22.890Z,-0.37
2023-01-19T21:43:50.011Z,-0.42
2023-01-19T21:46:20.061Z,-0.41
2023-01-19T21:48:47.741Z,-0.50
2023-01-19T21:51:15.635Z,-0.47
2023-01-19T21:53:42.773Z,-0.51
2023-01-19T21:56:11.161Z,-0.50
2023-01-19T21:58:38.496Z,-0.53
2023-01-19T22:01:11.086Z,-0.54
2023-01-19T22:03:38.414Z,-0.57
2023-01-19T22:06:07.234Z,-0.59
2023-01-19T22:08:35.150Z,-0.52
2023-01-19T22:11:07.236Z,-0.56
2023-01-19T22:13:35.676Z,-0.61
2023-01-19T22:16:04.673Z,-0.65
2023-01-19T22:18:31.763Z,-0.70
2023-01-19T22:21:11.644Z,-0.71
2023-01-19T22:23:39.368Z,-0.78
2023-01-19T22:26:07.758Z,-0.78
2023-01-19T22:28:35.794Z,-0.82
2023-01-19T22:31:12.399Z,-0.91
2023-01-19T22:33:40.049Z,-0.95
2023-01-19T22:36:13.630Z,-0.88
2023-01-19T22:38:41.634Z,-0.90
2023-01-19T22:41:42.280Z,-0.86
2023-01-19T22:44:13.247Z,-0.82
2023-01-19T22:46:40.457Z,-0.81
2023-01-19T22:49:08.393Z,-0.82
2023-01-19T22:51:35.999Z,-0.80
2023-01-19T22:54:03.499Z,-0.78
2023-01-19T22:56:33.018Z,-0.75
2023-01-19T22:59:01.011Z,-0.73
2023-01-19T23:01:30.317Z,-0.71
2023-01-19T23:03:57.804Z,-0.72
2023-01-19T23:06:30.100Z,-0.69
2023-01-19T23:09:00.218Z,-0.69
2023-01-19T23:11:34.272Z,-0.68
2023-01-19T23:14:03.383Z,-0.71
2023-01-19T23:16:30.523Z,-0.74
2023-01-19T23:18:58.715Z,-0.71
2023-01-19T23:21:28.927Z,-0.71
2023-01-19T23:23:59.038Z,-0.73
2023-01-19T23:26:26.648Z,-0.74
2023-01-19T23:28:59.315Z,-0.70
2023-01-19T23:31:27.764Z,-0.68
2023-01-19T23:33:57.503Z,-0.68
2023-01-19T23:36:27.528Z,-0.66
2023-01-19T23:39:04.435Z,-0.64
2023-01-19T23:41:34.693Z,-0.68
2023-01-19T23:44:02.034Z,-0.60
2023-01-19T23:46:30.235Z,-0.60
2023-01-19T23:48:57.463Z,-0.65
2023-01-19T23:51:27.320Z,-0.65
2023-01-19T23:53:54.921Z,-0.66
2023-01-19T23:56:23.164Z,-0.84
2023-01-19T23:58:57.164Z,-0.69
